Hlavní strana
METAR-TAF:

METAR-TAF

Letiště :

Male, Maledivy

Mezinárodní letiště Male

zeměpisná šířka: 04-12N, zeměpisná délka: 073-32E, výška: 2 m

Aktuální stav počasí

Zpráva byla vytvořena před 1 hodinou a 15 minutami, v 06:00 UTC
Východoseverovýchodní vítr 10 kt
Teplota 30°C
Vlhkost vzduchu 62%
Tlak 1012 hPa
Viditelnost: 7000 m
Skoro jasno ve výšce 1800 ft

METAR: VRMM 200600Z 06010KT 7000 FEW018 30/22 Q1012 NOSIG

Čas: 12:15 (07:15 UTC)

Předpověď počasí

Zpráva byla vytvořena před 2 hodinami a 15 minutami, v 05:00 UTC
Předpověď platná od 20 v 06 UTC do 21 v 12 UTC
Východoseverovýchodní vítr 11 kt
Viditelnost: 7000 m
Skoro jasno ve výšce 1800 ft

TAF: VRMM 200500Z 2006/2112 07011KT 7000 FEW018

Stav a předpovědi počasí z více než 4 000 letišť (zprávy METAR a TAF).

Červené a žluté tečky na mapě představují dostupné meteorologické stanice.

Když kurzor umístíte na tečku, zobrazí se název stanice.

Pak kliknutím zobrazíte stav a předpověď počasí.

Chcete-li změnit mapu, kliknutím na zelené tlačítko se znaménkem +mapu přiblížíte, kliknutím na zelené tlačítko se znaménkem – mapu oddálíte a kliknutím na zelené šipky přejdete na sousední mapy.


METAR-TAF: